sensor_id;sensor_type;location;lat;lon;timestamp;P1;durP1;ratioP1;P2;durP2;ratioP2
1140;SDS011;559;48.628;8.924;2024-03-02T00:02:39;177.13;;;168.48;;
1140;SDS011;559;48.628;8.924;2024-03-02T00:05:24;170.75;;;162.77;;
1140;SDS011;559;48.628;8.924;2024-03-02T00:07:53;176.13;;;167.93;;
1140;SDS011;559;48.628;8.924;2024-03-02T00:10:21;181.80;;;173.27;;
1140;SDS011;559;48.628;8.924;2024-03-02T00:18:40;181.90;;;173.57;;
1140;SDS011;559;48.628;8.924;2024-03-02T00:21:19;162.18;;;154.27;;
1140;SDS011;559;48.628;8.924;2024-03-02T00:38:01;156.32;;;148.05;;
1140;SDS011;559;48.628;8.924;2024-03-02T00:41:05;164.95;;;156.27;;
1140;SDS011;559;48.628;8.924;2024-03-02T00:43:42;161.75;;;153.13;;
1140;SDS011;559;48.628;8.924;2024-03-02T00:46:14;158.95;;;150.35;;
1140;SDS011;559;48.628;8.924;2024-03-02T00:48:47;153.23;;;144.93;;
1140;SDS011;559;48.628;8.924;2024-03-02T00:51:16;147.15;;;139.45;;
1140;SDS011;559;48.628;8.924;2024-03-02T00:53:43;148.35;;;140.73;;
1140;SDS011;559;48.628;8.924;2024-03-02T00:56:10;142.73;;;135.13;;
1140;SDS011;559;48.628;8.924;2024-03-02T00:58:37;139.65;;;132.23;;
1140;SDS011;559;48.628;8.924;2024-03-02T01:01:03;143.70;;;135.95;;
1140;SDS011;559;48.628;8.924;2024-03-02T01:03:30;141.98;;;134.20;;
1140;SDS011;559;48.628;8.924;2024-03-02T01:05:58;145.38;;;137.85;;
1140;SDS011;559;48.628;8.924;2024-03-02T01:08:25;140.18;;;132.65;;
1140;SDS011;559;48.628;8.924;2024-03-02T01:10:52;137.70;;;130.68;;
1140;SDS011;559;48.628;8.924;2024-03-02T01:13:18;137.10;;;129.77;;
1140;SDS011;559;48.628;8.924;2024-03-02T01:15:45;130.30;;;123.35;;
1140;SDS011;559;48.628;8.924;2024-03-02T01:18:11;135.00;;;127.80;;
1140;SDS011;559;48.628;8.924;2024-03-02T01:20:38;134.10;;;126.70;;
1140;SDS011;559;48.628;8.924;2024-03-02T01:23:06;136.27;;;129.27;;
1140;SDS011;559;48.628;8.924;2024-03-02T01:25:32;135.88;;;128.85;;
1140;SDS011;559;48.628;8.924;2024-03-02T01:27:59;136.70;;;129.60;;
1140;SDS011;559;48.628;8.924;2024-03-02T01:30:25;137.05;;;130.13;;
1140;SDS011;559;48.628;8.924;2024-03-02T01:32:52;137.23;;;130.07;;
1140;SDS011;559;48.628;8.924;2024-03-02T01:35:18;133.10;;;126.28;;
1140;SDS011;559;48.628;8.924;2024-03-02T01:37:45;141.38;;;133.98;;
1140;SDS011;559;48.628;8.924;2024-03-02T01:40:13;139.35;;;132.00;;
1140;SDS011;559;48.628;8.924;2024-03-02T01:42:39;133.57;;;126.63;;
1140;SDS011;559;48.628;8.924;2024-03-02T01:45:06;133.90;;;127.00;;
1140;SDS011;559;48.628;8.924;2024-03-02T01:47:33;136.13;;;129.23;;
1140;SDS011;559;48.628;8.924;2024-03-02T01:50:00;137.80;;;130.68;;
1140;SDS011;559;48.628;8.924;2024-03-02T01:52:27;135.52;;;128.63;;
1140;SDS011;559;48.628;8.924;2024-03-02T01:54:54;137.38;;;130.18;;
1140;SDS011;559;48.628;8.924;2024-03-02T01:57:22;134.73;;;127.13;;
1140;SDS011;559;48.628;8.924;2024-03-02T01:59:49;133.60;;;126.90;;
1140;SDS011;559;48.628;8.924;2024-03-02T02:02:15;138.57;;;131.38;;
1140;SDS011;559;48.628;8.924;2024-03-02T02:04:42;137.00;;;129.70;;
1140;SDS011;559;48.628;8.924;2024-03-02T02:07:09;132.05;;;125.25;;
1140;SDS011;559;48.628;8.924;2024-03-02T02:09:36;134.77;;;127.68;;
1140;SDS011;559;48.628;8.924;2024-03-02T02:12:03;135.07;;;128.18;;
1140;SDS011;559;48.628;8.924;2024-03-02T02:14:33;132.95;;;125.75;;
1140;SDS011;559;48.628;8.924;2024-03-02T02:16:59;135.05;;;127.95;;
1140;SDS011;559;48.628;8.924;2024-03-02T02:19:26;137.00;;;129.77;;
1140;SDS011;559;48.628;8.924;2024-03-02T02:21:54;139.65;;;132.43;;
1140;SDS011;559;48.628;8.924;2024-03-02T02:24:21;133.52;;;126.38;;
1140;SDS011;559;48.628;8.924;2024-03-02T02:26:47;136.50;;;129.45;;
1140;SDS011;559;48.628;8.924;2024-03-02T02:29:14;143.45;;;136.05;;
1140;SDS011;559;48.628;8.924;2024-03-02T02:31:40;142.88;;;135.45;;
1140;SDS011;559;48.628;8.924;2024-03-02T02:34:07;150.27;;;142.32;;
1140;SDS011;559;48.628;8.924;2024-03-02T02:36:34;159.10;;;150.85;;
1140;SDS011;559;48.628;8.924;2024-03-02T02:39:04;167.95;;;159.00;;
1140;SDS011;559;48.628;8.924;2024-03-02T02:41:31;163.90;;;155.50;;
1140;SDS011;559;48.628;8.924;2024-03-02T02:43:58;163.07;;;154.48;;
1140;SDS011;559;48.628;8.924;2024-03-02T02:46:24;164.45;;;155.93;;
1140;SDS011;559;48.628;8.924;2024-03-02T02:48:51;165.32;;;156.75;;
1140;SDS011;559;48.628;8.924;2024-03-02T02:51:18;161.35;;;152.45;;
1140;SDS011;559;48.628;8.924;2024-03-02T02:53:45;161.15;;;152.77;;
1140;SDS011;559;48.628;8.924;2024-03-02T02:56:13;161.85;;;153.18;;
1140;SDS011;559;48.628;8.924;2024-03-02T02:58:39;164.65;;;156.23;;
1140;SDS011;559;48.628;8.924;2024-03-02T03:01:06;160.52;;;152.35;;
1140;SDS011;559;48.628;8.924;2024-03-02T03:03:33;164.30;;;155.63;;
1140;SDS011;559;48.628;8.924;2024-03-02T03:06:00;161.75;;;153.50;;
1140;SDS011;559;48.628;8.924;2024-03-02T03:08:27;162.65;;;154.32;;
1140;SDS011;559;48.628;8.924;2024-03-02T03:10:53;162.30;;;153.60;;
1140;SDS011;559;48.628;8.924;2024-03-02T03:13:21;162.20;;;153.93;;
1140;SDS011;559;48.628;8.924;2024-03-02T03:15:48;153.30;;;145.20;;
1140;SDS011;559;48.628;8.924;2024-03-02T03:18:15;161.30;;;153.10;;
1140;SDS011;559;48.628;8.924;2024-03-02T03:20:41;159.80;;;151.43;;
1140;SDS011;559;48.628;8.924;2024-03-02T03:23:08;158.63;;;150.38;;
1140;SDS011;559;48.628;8.924;2024-03-02T03:25:34;157.88;;;150.02;;
1140;SDS011;559;48.628;8.924;2024-03-02T03:28:01;154.60;;;146.98;;
1140;SDS011;559;48.628;8.924;2024-03-02T03:30:29;149.20;;;141.70;;
1140;SDS011;559;48.628;8.924;2024-03-02T03:32:56;147.85;;;140.48;;
1140;SDS011;559;48.628;8.924;2024-03-02T03:35:22;152.13;;;144.25;;
1140;SDS011;559;48.628;8.924;2024-03-02T03:37:49;151.35;;;143.95;;
1140;SDS011;559;48.628;8.924;2024-03-02T03:40:15;150.27;;;142.82;;
1140;SDS011;559;48.628;8.924;2024-03-02T03:42:43;153.55;;;146.02;;
1140;SDS011;559;48.628;8.924;2024-03-02T03:45:09;148.02;;;140.68;;
1140;SDS011;559;48.628;8.924;2024-03-02T03:47:37;146.85;;;139.75;;
1140;SDS011;559;48.628;8.924;2024-03-02T03:50:04;146.68;;;139.38;;
1140;SDS011;559;48.628;8.924;2024-03-02T03:52:32;150.77;;;143.57;;
1140;SDS011;559;48.628;8.924;2024-03-02T03:54:58;147.07;;;139.68;;
1140;SDS011;559;48.628;8.924;2024-03-02T03:57:25;142.18;;;134.98;;
1140;SDS011;559;48.628;8.924;2024-03-02T03:59:51;144.93;;;137.70;;
1140;SDS011;559;48.628;8.924;2024-03-02T04:02:18;153.77;;;146.23;;
1140;SDS011;559;48.628;8.924;2024-03-02T04:04:46;149.27;;;141.82;;
1140;SDS011;559;48.628;8.924;2024-03-02T04:07:12;143.73;;;136.73;;
1140;SDS011;559;48.628;8.924;2024-03-02T04:09:39;149.55;;;142.15;;
1140;SDS011;559;48.628;8.924;2024-03-02T04:12:06;147.90;;;140.60;;
1140;SDS011;559;48.628;8.924;2024-03-02T04:14:32;152.77;;;144.80;;
1140;SDS011;559;48.628;8.924;2024-03-02T04:16:59;151.27;;;143.57;;
1140;SDS011;559;48.628;8.924;2024-03-02T04:19:25;152.38;;;144.68;;
1140;SDS011;559;48.628;8.924;2024-03-02T04:21:53;159.05;;;151.15;;
1140;SDS011;559;48.628;8.924;2024-03-02T04:24:20;163.13;;;154.95;;
1140;SDS011;559;48.628;8.924;2024-03-02T04:26:46;158.32;;;150.20;;
1140;SDS011;559;48.628;8.924;2024-03-02T04:29:13;164.57;;;156.02;;
1140;SDS011;559;48.628;8.924;2024-03-02T04:31:39;167.80;;;159.20;;
1140;SDS011;559;48.628;8.924;2024-03-02T04:34:06;169.30;;;160.43;;
1140;SDS011;559;48.628;8.924;2024-03-02T04:36:33;162.20;;;153.50;;
1140;SDS011;559;48.628;8.924;2024-03-02T04:39:01;161.35;;;152.60;;
1140;SDS011;559;48.628;8.924;2024-03-02T04:41:27;156.95;;;148.45;;
1140;SDS011;559;48.628;8.924;2024-03-02T04:43:54;160.05;;;151.77;;
1140;SDS011;559;48.628;8.924;2024-03-02T04:46:20;163.02;;;154.32;;
1140;SDS011;559;48.628;8.924;2024-03-02T04:48:47;164.50;;;155.70;;
1140;SDS011;559;48.628;8.924;2024-03-02T04:51:20;161.88;;;153.18;;
1140;SDS011;559;48.628;8.924;2024-03-02T04:53:46;162.15;;;153.32;;
1140;SDS011;559;48.628;8.924;2024-03-02T04:56:14;164.32;;;155.82;;
1140;SDS011;559;48.628;8.924;2024-03-02T04:59:05;159.98;;;151.57;;
1140;SDS011;559;48.628;8.924;2024-03-02T05:01:31;154.07;;;145.98;;
1140;SDS011;559;48.628;8.924;2024-03-02T05:03:58;159.98;;;151.52;;
1140;SDS011;559;48.628;8.924;2024-03-02T05:06:24;161.73;;;153.35;;
1140;SDS011;559;48.628;8.924;2024-03-02T05:08:51;161.85;;;153.02;;
1140;SDS011;559;48.628;8.924;2024-03-02T05:11:19;158.68;;;150.18;;
1140;SDS011;559;48.628;8.924;2024-03-02T05:13:59;160.13;;;152.10;;
1140;SDS011;559;48.628;8.924;2024-03-02T05:16:26;161.55;;;153.40;;
1140;SDS011;559;48.628;8.924;2024-03-02T05:18:52;156.77;;;148.82;;
1140;SDS011;559;48.628;8.924;2024-03-02T05:21:19;159.63;;;151.68;;
1140;SDS011;559;48.628;8.924;2024-03-02T05:23:45;158.32;;;150.05;;
1140;SDS011;559;48.628;8.924;2024-03-02T05:26:12;159.88;;;151.65;;
1140;SDS011;559;48.628;8.924;2024-03-02T05:28:40;166.82;;;158.13;;
1140;SDS011;559;48.628;8.924;2024-03-02T05:31:06;160.00;;;151.95;;
1140;SDS011;559;48.628;8.924;2024-03-02T05:33:33;161.98;;;153.82;;
1140;SDS011;559;48.628;8.924;2024-03-02T05:35:59;163.95;;;155.85;;
1140;SDS011;559;48.628;8.924;2024-03-02T05:38:27;157.18;;;149.18;;
1140;SDS011;559;48.628;8.924;2024-03-02T05:40:53;160.35;;;151.88;;
1140;SDS011;559;48.628;8.924;2024-03-02T05:43:19;154.23;;;146.55;;
1140;SDS011;559;48.628;8.924;2024-03-02T05:45:47;154.40;;;146.35;;
1140;SDS011;559;48.628;8.924;2024-03-02T05:48:14;153.88;;;146.07;;
1140;SDS011;559;48.628;8.924;2024-03-02T05:50:41;155.85;;;147.60;;
1140;SDS011;559;48.628;8.924;2024-03-02T05:53:07;154.65;;;146.35;;
1140;SDS011;559;48.628;8.924;2024-03-02T05:55:34;159.40;;;151.00;;
1140;SDS011;559;48.628;8.924;2024-03-02T05:58:00;163.68;;;154.90;;
1140;SDS011;559;48.628;8.924;2024-03-02T06:00:42;163.02;;;154.45;;
1140;SDS011;559;48.628;8.924;2024-03-02T06:03:10;163.25;;;154.45;;
1140;SDS011;559;48.628;8.924;2024-03-02T06:05:37;163.15;;;154.85;;
1140;SDS011;559;48.628;8.924;2024-03-02T06:08:03;165.88;;;157.25;;
1140;SDS011;559;48.628;8.924;2024-03-02T06:10:30;160.57;;;152.02;;
1140;SDS011;559;48.628;8.924;2024-03-02T06:12:56;157.10;;;148.90;;
1140;SDS011;559;48.628;8.924;2024-03-02T06:15:24;157.38;;;148.80;;
1140;SDS011;559;48.628;8.924;2024-03-02T06:17:50;155.60;;;147.13;;
1140;SDS011;559;48.628;8.924;2024-03-02T06:20:18;153.77;;;145.18;;
1140;SDS011;559;48.628;8.924;2024-03-02T06:22:44;157.40;;;148.50;;
1140;SDS011;559;48.628;8.924;2024-03-02T06:25:11;152.70;;;144.20;;
1140;SDS011;559;48.628;8.924;2024-03-02T06:27:38;151.05;;;143.00;;
1140;SDS011;559;48.628;8.924;2024-03-02T06:30:05;153.77;;;144.98;;
1140;SDS011;559;48.628;8.924;2024-03-02T06:32:33;153.90;;;145.40;;
1140;SDS011;559;48.628;8.924;2024-03-02T06:34:59;152.07;;;143.85;;
1140;SDS011;559;48.628;8.924;2024-03-02T06:37:27;150.88;;;142.95;;
1140;SDS011;559;48.628;8.924;2024-03-02T06:39:54;152.65;;;144.25;;
1140;SDS011;559;48.628;8.924;2024-03-02T06:42:20;154.63;;;146.32;;
1140;SDS011;559;48.628;8.924;2024-03-02T06:44:47;157.40;;;148.60;;
1140;SDS011;559;48.628;8.924;2024-03-02T06:47:14;154.77;;;146.27;;
1140;SDS011;559;48.628;8.924;2024-03-02T06:49:41;151.23;;;142.98;;
1140;SDS011;559;48.628;8.924;2024-03-02T06:52:08;146.20;;;138.10;;
1140;SDS011;559;48.628;8.924;2024-03-02T06:54:36;143.85;;;135.63;;
1140;SDS011;559;48.628;8.924;2024-03-02T06:57:03;148.63;;;140.38;;
1140;SDS011;559;48.628;8.924;2024-03-02T06:59:29;149.88;;;141.77;;
1140;SDS011;559;48.628;8.924;2024-03-02T07:01:56;149.32;;;140.98;;
1140;SDS011;559;48.628;8.924;2024-03-02T07:04:23;148.73;;;140.27;;
1140;SDS011;559;48.628;8.924;2024-03-02T07:06:49;146.82;;;138.88;;
1140;SDS011;559;48.628;8.924;2024-03-02T07:09:16;147.40;;;139.15;;
1140;SDS011;559;48.628;8.924;2024-03-02T07:11:43;148.48;;;140.30;;
1140;SDS011;559;48.628;8.924;2024-03-02T07:14:10;147.63;;;139.38;;
1140;SDS011;559;48.628;8.924;2024-03-02T07:16:37;142.43;;;134.88;;
1140;SDS011;559;48.628;8.924;2024-03-02T07:19:03;140.43;;;132.82;;
1140;SDS011;559;48.628;8.924;2024-03-02T07:21:30;137.27;;;129.88;;
1140;SDS011;559;48.628;8.924;2024-03-02T07:23:57;144.73;;;137.05;;
1140;SDS011;559;48.628;8.924;2024-03-02T07:26:24;145.18;;;137.10;;
1140;SDS011;559;48.628;8.924;2024-03-02T07:28:52;135.40;;;128.30;;
1140;SDS011;559;48.628;8.924;2024-03-02T07:31:19;134.57;;;127.30;;
1140;SDS011;559;48.628;8.924;2024-03-02T07:33:46;130.77;;;123.65;;
1140;SDS011;559;48.628;8.924;2024-03-02T07:36:13;129.77;;;122.78;;
1140;SDS011;559;48.628;8.924;2024-03-02T07:38:39;134.60;;;127.20;;
1140;SDS011;559;48.628;8.924;2024-03-02T07:41:06;139.70;;;132.10;;
1140;SDS011;559;48.628;8.924;2024-03-02T07:43:33;138.35;;;130.38;;
1140;SDS011;559;48.628;8.924;2024-03-02T07:46:01;146.07;;;137.90;;
1140;SDS011;559;48.628;8.924;2024-03-02T07:48:28;139.30;;;130.80;;
1140;SDS011;559;48.628;8.924;2024-03-02T07:50:55;145.43;;;136.88;;
1140;SDS011;559;48.628;8.924;2024-03-02T07:53:22;142.63;;;134.07;;
1140;SDS011;559;48.628;8.924;2024-03-02T07:55:48;139.75;;;131.63;;
1140;SDS011;559;48.628;8.924;2024-03-02T07:58:15;136.98;;;128.90;;
1140;SDS011;559;48.628;8.924;2024-03-02T08:00:43;135.05;;;127.05;;
1140;SDS011;559;48.628;8.924;2024-03-02T08:03:11;132.80;;;125.10;;
1140;SDS011;559;48.628;8.924;2024-03-02T08:05:38;127.68;;;120.00;;
1140;SDS011;559;48.628;8.924;2024-03-02T08:08:04;123.50;;;116.35;;
1140;SDS011;559;48.628;8.924;2024-03-02T08:10:30;126.97;;;119.57;;
1140;SDS011;559;48.628;8.924;2024-03-02T08:12:58;122.53;;;115.43;;
1140;SDS011;559;48.628;8.924;2024-03-02T08:15:24;117.50;;;110.60;;
1140;SDS011;559;48.628;8.924;2024-03-02T08:17:51;113.05;;;106.57;;
1140;SDS011;559;48.628;8.924;2024-03-02T08:20:19;103.00;;;97.00;;
1140;SDS011;559;48.628;8.924;2024-03-02T08:22:46;100.25;;;94.57;;
1140;SDS011;559;48.628;8.924;2024-03-02T08:25:13;88.97;;;83.93;;
1140;SDS011;559;48.628;8.924;2024-03-02T08:27:40;88.72;;;84.13;;
1140;SDS011;559;48.628;8.924;2024-03-02T08:30:07;78.57;;;74.15;;
1140;SDS011;559;48.628;8.924;2024-03-02T08:32:35;72.38;;;68.40;;
1140;SDS011;559;48.628;8.924;2024-03-02T08:35:02;74.68;;;70.68;;
1140;SDS011;559;48.628;8.924;2024-03-02T08:37:31;73.20;;;69.30;;
1140;SDS011;559;48.628;8.924;2024-03-02T08:39:57;71.75;;;67.75;;
1140;SDS011;559;48.628;8.924;2024-03-02T08:42:24;72.85;;;68.85;;
1140;SDS011;559;48.628;8.924;2024-03-02T08:44:51;74.70;;;70.30;;
1140;SDS011;559;48.628;8.924;2024-03-02T08:47:17;70.75;;;67.05;;
1140;SDS011;559;48.628;8.924;2024-03-02T08:49:44;71.13;;;67.32;;
1140;SDS011;559;48.628;8.924;2024-03-02T08:52:10;68.82;;;65.22;;
1140;SDS011;559;48.628;8.924;2024-03-02T08:54:39;62.25;;;59.03;;
1140;SDS011;559;48.628;8.924;2024-03-02T08:57:06;60.55;;;57.35;;
1140;SDS011;559;48.628;8.924;2024-03-02T08:59:33;57.80;;;54.92;;
1140;SDS011;559;48.628;8.924;2024-03-02T09:01:59;58.13;;;55.22;;
1140;SDS011;559;48.628;8.924;2024-03-02T09:04:26;56.80;;;54.08;;
1140;SDS011;559;48.628;8.924;2024-03-02T09:06:52;52.45;;;50.15;;
1140;SDS011;559;48.628;8.924;2024-03-02T09:09:19;51.83;;;49.72;;
1140;SDS011;559;48.628;8.924;2024-03-02T09:11:47;51.42;;;49.25;;
1140;SDS011;559;48.628;8.924;2024-03-02T09:14:13;47.35;;;45.45;;
1140;SDS011;559;48.628;8.924;2024-03-02T09:16:40;45.78;;;44.00;;
1140;SDS011;559;48.628;8.924;2024-03-02T09:19:07;42.13;;;40.60;;
1140;SDS011;559;48.628;8.924;2024-03-02T09:21:34;41.65;;;40.25;;
1140;SDS011;559;48.628;8.924;2024-03-02T09:24:01;39.10;;;37.67;;
1140;SDS011;559;48.628;8.924;2024-03-02T09:26:28;37.55;;;36.00;;
1140;SDS011;559;48.628;8.924;2024-03-02T09:28:56;35.22;;;34.03;;
1140;SDS011;559;48.628;8.924;2024-03-02T09:31:22;36.72;;;35.53;;
1140;SDS011;559;48.628;8.924;2024-03-02T09:33:49;32.88;;;31.77;;
1140;SDS011;559;48.628;8.924;2024-03-02T09:36:18;28.60;;;27.67;;
1140;SDS011;559;48.628;8.924;2024-03-02T09:38:45;24.48;;;23.65;;
1140;SDS011;559;48.628;8.924;2024-03-02T09:41:12;21.90;;;21.02;;
1140;SDS011;559;48.628;8.924;2024-03-02T09:43:38;20.92;;;20.10;;
1140;SDS011;559;48.628;8.924;2024-03-02T09:46:07;20.60;;;19.83;;
1140;SDS011;559;48.628;8.924;2024-03-02T09:48:35;21.05;;;19.45;;
1140;SDS011;559;48.628;8.924;2024-03-02T09:51:01;17.88;;;17.25;;
1140;SDS011;559;48.628;8.924;2024-03-02T09:53:28;15.90;;;15.20;;
1140;SDS011;559;48.628;8.924;2024-03-02T09:55:58;14.85;;;14.15;;
1140;SDS011;559;48.628;8.924;2024-03-02T09:58:25;13.82;;;13.32;;
1140;SDS011;559;48.628;8.924;2024-03-02T10:00:52;13.27;;;12.82;;
1140;SDS011;559;48.628;8.924;2024-03-02T10:03:20;13.35;;;12.57;;
1140;SDS011;559;48.628;8.924;2024-03-02T10:05:47;11.70;;;11.23;;
1140;SDS011;559;48.628;8.924;2024-03-02T10:08:13;13.68;;;13.07;;
1140;SDS011;559;48.628;8.924;2024-03-02T10:10:40;12.98;;;12.40;;
1140;SDS011;559;48.628;8.924;2024-03-02T10:13:09;14.68;;;14.00;;
1140;SDS011;559;48.628;8.924;2024-03-02T10:15:36;14.95;;;14.25;;
1140;SDS011;559;48.628;8.924;2024-03-02T10:18:03;10.80;;;10.30;;
1140;SDS011;559;48.628;8.924;2024-03-02T10:20:31;9.85;;;9.45;;
1140;SDS011;559;48.628;8.924;2024-03-02T10:23:09;10.77;;;10.38;;
1140;SDS011;559;48.628;8.924;2024-03-02T10:25:37;8.00;;;7.70;;
1140;SDS011;559;48.628;8.924;2024-03-02T10:28:04;8.30;;;7.90;;
1140;SDS011;559;48.628;8.924;2024-03-02T10:30:31;6.75;;;6.35;;
1140;SDS011;559;48.628;8.924;2024-03-02T10:32:58;5.60;;;5.38;;
1140;SDS011;559;48.628;8.924;2024-03-02T10:35:25;3.90;;;3.70;;
1140;SDS011;559;48.628;8.924;2024-03-02T10:37:53;3.65;;;3.45;;
1140;SDS011;559;48.628;8.924;2024-03-02T10:40:21;5.28;;;4.88;;
1140;SDS011;559;48.628;8.924;2024-03-02T10:42:47;3.75;;;3.45;;
1140;SDS011;559;48.628;8.924;2024-03-02T10:45:16;3.20;;;2.90;;
1140;SDS011;559;48.628;8.924;2024-03-02T10:47:42;2.97;;;2.78;;
1140;SDS011;559;48.628;8.924;2024-03-02T10:50:09;2.60;;;2.50;;
1140;SDS011;559;48.628;8.924;2024-03-02T10:52:38;2.03;;;1.93;;
1140;SDS011;559;48.628;8.924;2024-03-02T10:55:07;2.60;;;2.40;;
1140;SDS011;559;48.628;8.924;2024-03-02T10:57:37;1.80;;;1.70;;
1140;SDS011;559;48.628;8.924;2024-03-02T11:00:07;2.10;;;1.87;;
1140;SDS011;559;48.628;8.924;2024-03-02T11:02:40;1.60;;;1.50;;
1140;SDS011;559;48.628;8.924;2024-03-02T11:05:09;1.17;;;1.07;;
1140;SDS011;559;48.628;8.924;2024-03-02T11:07:37;0.97;;;0.87;;
1140;SDS011;559;48.628;8.924;2024-03-02T11:10:05;1.07;;;0.80;;
1140;SDS011;559;48.628;8.924;2024-03-02T11:12:35;1.23;;;0.93;;
1140;SDS011;559;48.628;8.924;2024-03-02T11:15:05;0.90;;;0.60;;
1140;SDS011;559;48.628;8.924;2024-03-02T11:17:37;0.90;;;0.67;;
1140;SDS011;559;48.628;8.924;2024-03-02T11:20:05;0.90;;;0.80;;
1140;SDS011;559;48.628;8.924;2024-03-02T11:22:34;1.03;;;0.70;;
1140;SDS011;559;48.628;8.924;2024-03-02T11:25:01;1.10;;;0.90;;
1140;SDS011;559;48.628;8.924;2024-03-02T11:33:24;0.90;;;0.60;;
1140;SDS011;559;48.628;8.924;2024-03-02T11:35:52;1.20;;;0.90;;
1140;SDS011;559;48.628;8.924;2024-03-02T11:38:19;1.30;;;0.57;;
1140;SDS011;559;48.628;8.924;2024-03-02T11:40:45;1.80;;;0.60;;
1140;SDS011;559;48.628;8.924;2024-03-02T11:43:13;1.00;;;0.80;;
1140;SDS011;559;48.628;8.924;2024-03-02T11:45:41;1.53;;;0.80;;
1140;SDS011;559;48.628;8.924;2024-03-02T11:48:09;1.20;;;0.60;;
1140;SDS011;559;48.628;8.924;2024-03-02T11:50:39;3.43;;;0.90;;
1140;SDS011;559;48.628;8.924;2024-03-02T11:53:08;1.77;;;0.90;;
1140;SDS011;559;48.628;8.924;2024-03-02T11:55:37;1.53;;;0.70;;
1140;SDS011;559;48.628;8.924;2024-03-02T11:58:04;0.90;;;0.50;;
1140;SDS011;559;48.628;8.924;2024-03-02T12:00:32;1.93;;;0.60;;
1140;SDS011;559;48.628;8.924;2024-03-02T12:03:00;0.93;;;0.60;;
1140;SDS011;559;48.628;8.924;2024-03-02T12:05:27;0.80;;;0.60;;
1140;SDS011;559;48.628;8.924;2024-03-02T12:07:55;0.90;;;0.60;;
1140;SDS011;559;48.628;8.924;2024-03-02T12:10:22;2.97;;;0.90;;
1140;SDS011;559;48.628;8.924;2024-03-02T12:12:54;0.90;;;0.60;;
1140;SDS011;559;48.628;8.924;2024-03-02T12:15:22;2.50;;;0.70;;
1140;SDS011;559;48.628;8.924;2024-03-02T12:17:53;1.50;;;0.80;;
1140;SDS011;559;48.628;8.924;2024-03-02T12:20:20;2.50;;;0.60;;
1140;SDS011;559;48.628;8.924;2024-03-02T12:22:50;0.80;;;0.40;;
1140;SDS011;559;48.628;8.924;2024-03-02T12:25:18;1.30;;;0.93;;
1140;SDS011;559;48.628;8.924;2024-03-02T12:27:45;1.00;;;0.60;;
1140;SDS011;559;48.628;8.924;2024-03-02T12:30:12;1.17;;;0.80;;
1140;SDS011;559;48.628;8.924;2024-03-02T12:32:39;1.00;;;0.60;;
1140;SDS011;559;48.628;8.924;2024-03-02T12:35:07;1.37;;;0.50;;
1140;SDS011;559;48.628;8.924;2024-03-02T12:37:41;1.17;;;0.70;;
1140;SDS011;559;48.628;8.924;2024-03-02T12:40:09;1.13;;;0.70;;
1140;SDS011;559;48.628;8.924;2024-03-02T12:42:36;0.80;;;0.40;;
1140;SDS011;559;48.628;8.924;2024-03-02T12:45:03;0.80;;;0.50;;
1140;SDS011;559;48.628;8.924;2024-03-02T12:47:30;2.90;;;0.77;;
1140;SDS011;559;48.628;8.924;2024-03-02T12:49:56;1.93;;;0.80;;
1140;SDS011;559;48.628;8.924;2024-03-02T12:52:24;1.20;;;0.90;;
1140;SDS011;559;48.628;8.924;2024-03-02T12:54:51;1.27;;;1.00;;
1140;SDS011;559;48.628;8.924;2024-03-02T12:57:24;1.00;;;0.63;;
1140;SDS011;559;48.628;8.924;2024-03-02T12:59:51;1.40;;;0.90;;
1140;SDS011;559;48.628;8.924;2024-03-02T13:02:18;1.10;;;0.70;;
1140;SDS011;559;48.628;8.924;2024-03-02T13:04:44;1.90;;;0.73;;
1140;SDS011;559;48.628;8.924;2024-03-02T13:07:11;1.50;;;0.80;;
1140;SDS011;559;48.628;8.924;2024-03-02T13:09:40;1.33;;;1.20;;
1140;SDS011;559;48.628;8.924;2024-03-02T13:12:06;1.90;;;1.20;;
1140;SDS011;559;48.628;8.924;2024-03-02T13:14:33;1.43;;;0.80;;
1140;SDS011;559;48.628;8.924;2024-03-02T13:17:00;1.60;;;1.20;;
1140;SDS011;559;48.628;8.924;2024-03-02T13:19:29;3.27;;;1.17;;
1140;SDS011;559;48.628;8.924;2024-03-02T13:21:56;1.60;;;1.23;;
1140;SDS011;559;48.628;8.924;2024-03-02T13:24:23;1.77;;;1.67;;
1140;SDS011;559;48.628;8.924;2024-03-02T13:26:54;1.83;;;1.50;;
1140;SDS011;559;48.628;8.924;2024-03-02T13:29:23;1.43;;;1.33;;
1140;SDS011;559;48.628;8.924;2024-03-02T13:31:50;7.10;;;1.80;;
1140;SDS011;559;48.628;8.924;2024-03-02T13:34:16;2.23;;;1.67;;
1140;SDS011;559;48.628;8.924;2024-03-02T13:36:43;1.30;;;1.20;;
1140;SDS011;559;48.628;8.924;2024-03-02T13:39:10;2.70;;;1.30;;
1140;SDS011;559;48.628;8.924;2024-03-02T13:41:40;3.23;;;1.70;;
1140;SDS011;559;48.628;8.924;2024-03-02T13:44:08;1.40;;;1.20;;
1140;SDS011;559;48.628;8.924;2024-03-02T13:46:34;1.53;;;1.30;;
1140;SDS011;559;48.628;8.924;2024-03-02T13:49:01;2.20;;;1.37;;
1140;SDS011;559;48.628;8.924;2024-03-02T13:51:27;2.27;;;1.80;;
1140;SDS011;559;48.628;8.924;2024-03-02T13:53:54;2.00;;;1.20;;
1140;SDS011;559;48.628;8.924;2024-03-02T13:56:20;1.90;;;1.57;;
1140;SDS011;559;48.628;8.924;2024-03-02T13:58:47;2.27;;;1.50;;
1140;SDS011;559;48.628;8.924;2024-03-02T14:01:15;1.70;;;1.30;;
1140;SDS011;559;48.628;8.924;2024-03-02T14:03:41;2.00;;;1.80;;
1140;SDS011;559;48.628;8.924;2024-03-02T14:06:08;2.03;;;1.40;;
1140;SDS011;559;48.628;8.924;2024-03-02T14:08:35;2.70;;;1.50;;
1140;SDS011;559;48.628;8.924;2024-03-02T14:11:01;3.00;;;1.57;;
1140;SDS011;559;48.628;8.924;2024-03-02T14:13:28;1.90;;;1.30;;
1140;SDS011;559;48.628;8.924;2024-03-02T14:15:54;3.27;;;1.77;;
1140;SDS011;559;48.628;8.924;2024-03-02T14:18:22;1.87;;;1.60;;
1140;SDS011;559;48.628;8.924;2024-03-02T14:21:20;4.77;;;1.43;;
1140;SDS011;559;48.628;8.924;2024-03-02T14:30:47;1.87;;;1.33;;
1140;SDS011;559;48.628;8.924;2024-03-02T14:43:37;1.50;;;1.37;;
1140;SDS011;559;48.628;8.924;2024-03-02T14:47:06;1.67;;;1.40;;
1140;SDS011;559;48.628;8.924;2024-03-02T14:50:21;1.50;;;1.23;;
1140;SDS011;559;48.628;8.924;2024-03-02T15:06:32;2.07;;;1.57;;
1140;SDS011;559;48.628;8.924;2024-03-02T15:15:03;1.40;;;1.17;;
1140;SDS011;559;48.628;8.924;2024-03-02T15:19:11;1.50;;;0.90;;
1140;SDS011;559;48.628;8.924;2024-03-02T15:46:21;16.23;;;14.93;;
1140;SDS011;559;48.628;8.924;2024-03-02T15:49:15;2.23;;;2.03;;
1140;SDS011;559;48.628;8.924;2024-03-02T15:58:58;1.40;;;1.20;;
1140;SDS011;559;48.628;8.924;2024-03-02T16:02:25;3.40;;;2.27;;
1140;SDS011;559;48.628;8.924;2024-03-02T16:05:47;1.20;;;1.07;;
1140;SDS011;559;48.628;8.924;2024-03-02T16:10:05;5.00;;;3.50;;
1140;SDS011;559;48.628;8.924;2024-03-02T16:26:32;3.83;;;3.20;;
1140;SDS011;559;48.628;8.924;2024-03-02T16:30:34;4.10;;;2.50;;
1140;SDS011;559;48.628;8.924;2024-03-02T17:07:18;9.73;;;8.70;;
1140;SDS011;559;48.628;8.924;2024-03-02T17:10:45;8.45;;;7.05;;
1140;SDS011;559;48.628;8.924;2024-03-02T17:35:53;5.03;;;3.78;;
1140;SDS011;559;48.628;8.924;2024-03-02T17:56:22;13.02;;;11.93;;
1140;SDS011;559;48.628;8.924;2024-03-02T18:03:04;32.67;;;31.23;;
1140;SDS011;559;48.628;8.924;2024-03-02T18:06:01;51.35;;;49.55;;
1140;SDS011;559;48.628;8.924;2024-03-02T18:09:41;59.35;;;57.30;;
1140;SDS011;559;48.628;8.924;2024-03-02T18:23:18;104.13;;;100.40;;
1140;SDS011;559;48.628;8.924;2024-03-02T18:26:24;110.57;;;106.57;;
1140;SDS011;559;48.628;8.924;2024-03-02T18:35:54;124.90;;;119.90;;
1140;SDS011;559;48.628;8.924;2024-03-02T19:17:33;138.77;;;132.75;;
